Time;durP1;ratioP1;P1;durP2;ratioP2;P2;SDS_P1;SDS_P2;PMS_P1;PMS_P2;Temp;Humidity;BMP_temperature;BMP_pressure;BME280_temperature;BME280_humidity;BME280_pressure;Samples;Min_cycle;Max_cycle;Signal;HPM_P1;HPM_P2
2021/09/03 00:00:21;;;;;;;5.57;3.40;;;;;;;12.63;100.00;101529.47;5201077;28;20029;-78
2021/09/03 00:02:52;;;;;;;6.68;3.65;;;;;;;12.77;100.00;101532.56;5201547;28;20033;-79
2021/09/03 00:05:23;;;;;;;7.53;3.70;;;;;;;12.86;100.00;101528.81;5201541;28;20034;-79
2021/09/03 00:07:53;;;;;;;6.25;3.30;;;;;;;12.84;100.00;101526.22;5200616;28;20021;-78
2021/09/03 00:10:23;;;;;;;4.45;3.28;;;;;;;12.81;100.00;101526.31;5200295;28;20033;-77
2021/09/03 00:12:54;;;;;;;5.93;3.25;;;;;;;12.80;100.00;101524.59;5200811;28;20063;-77
2021/09/03 00:15:24;;;;;;;6.27;3.30;;;;;;;12.71;100.00;101518.75;5199791;28;20029;-77
2021/09/03 00:17:55;;;;;;;8.48;3.13;;;;;;;12.59;100.00;101517.34;5200636;28;20793;-76
2021/09/03 00:20:25;;;;;;;5.55;3.38;;;;;;;12.67;100.00;101519.75;5199964;28;20064;-77
2021/09/03 00:22:55;;;;;;;4.97;3.27;;;;;;;12.51;100.00;101521.97;5200495;28;20025;-78
2021/09/03 00:25:26;;;;;;;4.45;3.17;;;;;;;12.47;100.00;101515.06;5200309;28;20314;-80
2021/09/03 00:27:56;;;;;;;5.40;2.78;;;;;;;12.35;100.00;101512.81;5200417;28;20033;-77
2021/09/03 00:30:26;;;;;;;5.53;3.25;;;;;;;12.38;100.00;101509.22;5200393;28;20025;-78
2021/09/03 00:32:57;;;;;;;4.05;3.08;;;;;;;12.30;100.00;101516.47;5199225;28;20116;-77
2021/09/03 00:35:27;;;;;;;4.40;2.92;;;;;;;12.12;100.00;101509.94;5200114;28;20080;-77
2021/09/03 00:37:57;;;;;;;6.10;3.28;;;;;;;12.11;100.00;101508.22;5198928;28;20021;-76
2021/09/03 00:40:28;;;;;;;5.10;3.38;;;;;;;12.24;100.00;101495.63;5197289;28;20036;-76
2021/09/03 00:42:58;;;;;;;6.10;2.90;;;;;;;12.27;100.00;101496.41;5195026;28;20480;-77
2021/09/03 00:45:28;;;;;;;6.32;3.03;;;;;;;12.47;100.00;101499.34;5198653;28;20434;-76
2021/09/03 00:47:59;;;;;;;4.88;3.05;;;;;;;12.40;100.00;101497.81;5200456;28;20017;-77
2021/09/03 00:50:29;;;;;;;4.95;2.97;;;;;;;12.28;100.00;101492.91;5199502;28;20029;-78
2021/09/03 00:53:00;;;;;;;3.47;2.30;;;;;;;12.36;100.00;101498.81;5199800;28;20022;-77
2021/09/03 00:55:30;;;;;;;3.95;2.70;;;;;;;12.31;100.00;101498.03;5200154;28;20494;-79
2021/09/03 00:58:00;;;;;;;3.47;1.88;;;;;;;12.38;100.00;101494.38;5199763;28;20032;-78
2021/09/03 01:00:30;;;;;;;2.75;1.50;;;;;;;12.40;100.00;101492.56;5200079;28;20491;-77
2021/09/03 01:03:01;;;;;;;1.40;1.17;;;;;;;12.16;100.00;101497.63;5199424;28;20057;-79
2021/09/03 01:05:31;;;;;;;2.08;1.27;;;;;;;12.31;100.00;101498.03;5200104;28;20032;-77
2021/09/03 01:08:02;;;;;;;3.20;1.05;;;;;;;12.19;100.00;101492.28;5199268;28;20029;-78
2021/09/03 01:10:33;;;;;;;1.13;0.85;;;;;;;12.05;100.00;101489.19;5199712;28;20111;-76
2021/09/03 01:13:05;;;;;;;1.98;1.10;;;;;;;12.14;100.00;101487.16;5202119;28;20044;-78
2021/09/03 01:15:35;;;;;;;1.23;0.88;;;;;;;12.08;100.00;101486.47;5202940;28;20476;-77
2021/09/03 01:18:06;;;;;;;0.77;0.70;;;;;;;12.03;100.00;101486.63;5203856;28;20045;-79
2021/09/03 01:20:36;;;;;;;1.00;0.70;;;;;;;12.11;100.00;101487.25;5203073;28;20036;-77
2021/09/03 01:23:07;;;;;;;1.42;0.70;;;;;;;11.98;100.00;101478.00;5203558;28;20545;-76
2021/09/03 01:25:37;;;;;;;1.20;0.85;;;;;;;11.88;100.00;101476.53;5203309;28;20194;-78
2021/09/03 01:28:07;;;;;;;5.22;0.77;;;;;;;11.91;100.00;101481.69;5203185;28;20112;-77
2021/09/03 01:30:38;;;;;;;1.45;0.98;;;;;;;11.74;100.00;101488.25;5204055;28;20414;-78
2021/09/03 01:33:09;;;;;;;1.67;1.27;;;;;;;11.87;100.00;101481.81;5202406;28;20029;-78
2021/09/03 01:35:39;;;;;;;1.55;1.10;;;;;;;11.94;100.00;101478.16;5203057;28;20483;-77
2021/09/03 01:38:09;;;;;;;1.70;1.13;;;;;;;11.78;100.00;101471.59;5202953;28;20017;-76
2021/09/03 01:40:39;;;;;;;1.98;1.45;;;;;;;11.63;100.00;101475.44;5203209;28;20029;-78
2021/09/03 01:43:10;;;;;;;2.17;1.58;;;;;;;11.55;100.00;101476.50;5203204;28;20163;-77
2021/09/03 01:45:40;;;;;;;2.95;2.28;;;;;;;11.50;100.00;101471.41;5202794;28;20040;-77
2021/09/03 01:48:11;;;;;;;2.13;1.73;;;;;;;11.53;100.00;101471.31;5203275;28;20586;-77
2021/09/03 01:50:41;;;;;;;4.40;1.98;;;;;;;11.41;100.00;101469.00;5202510;28;20380;-77
2021/09/03 01:53:11;;;;;;;2.40;1.65;;;;;;;11.46;100.00;101461.88;5202730;28;20029;-77
2021/09/03 01:55:41;;;;;;;1.73;1.40;;;;;;;11.56;100.00;101457.31;5202576;28;20032;-77
2021/09/03 01:58:12;;;;;;;5.88;1.73;;;;;;;11.32;100.00;101456.16;5203182;28;20495;-77
2021/09/03 02:00:42;;;;;;;2.25;1.45;;;;;;;11.30;100.00;101457.94;5203634;28;20029;-76
2021/09/03 02:03:14;;;;;;;2.15;1.63;;;;;;;11.32;100.00;101456.16;5184979;28;20057;-78
2021/09/03 02:05:44;;;;;;;2.65;1.50;;;;;;;11.42;100.00;101459.41;5202308;28;20026;-77
2021/09/03 02:08:15;;;;;;;1.75;1.35;;;;;;;11.60;100.00;101444.09;5202338;28;20026;-78
2021/09/03 02:10:45;;;;;;;1.38;1.23;;;;;;;11.58;100.00;101439.84;5202838;28;20025;-79
2021/09/03 02:13:15;;;;;;;1.30;1.08;;;;;;;11.76;100.00;101439.34;5202776;28;20033;-78
2021/09/03 02:15:46;;;;;;;1.70;1.30;;;;;;;11.88;100.00;101439.00;5202428;28;20025;-78
2021/09/03 02:18:16;;;;;;;1.50;1.17;;;;;;;11.53;100.00;101450.38;5202340;28;20031;-77
2021/09/03 02:20:47;;;;;;;1.67;1.10;;;;;;;11.40;100.00;101456.81;5202269;28;20029;-77
2021/09/03 02:23:17;;;;;;;1.77;1.38;;;;;;;11.38;100.00;101448.16;5202004;28;20079;-78
2021/09/03 02:25:47;;;;;;;1.90;1.40;;;;;;;11.52;100.00;101442.56;5201800;28;20407;-77
2021/09/03 02:28:18;;;;;;;2.50;1.77;;;;;;;11.54;100.00;101439.00;5201378;28;20537;-77
2021/09/03 02:30:49;;;;;;;3.10;2.20;;;;;;;11.66;100.00;101443.97;5201461;28;20060;-80
2021/09/03 02:33:19;;;;;;;3.65;2.40;;;;;;;11.72;100.00;101443.81;5201658;28;20052;-78
2021/09/03 02:35:49;;;;;;;4.65;2.30;;;;;;;11.70;100.00;101439.50;5202389;28;20025;-77
2021/09/03 02:38:20;;;;;;;3.03;2.25;;;;;;;11.71;100.00;101441.22;5201899;28;20562;-77
2021/09/03 02:40:50;;;;;;;4.15;2.60;;;;;;;11.84;100.00;101434.75;5201818;28;20029;-79
2021/09/03 02:43:20;;;;;;;4.38;2.53;;;;;;;11.59;100.00;101437.16;5201845;28;20518;-78
2021/09/03 02:45:51;;;;;;;3.40;2.58;;;;;;;11.67;100.00;101436.97;5201706;28;20208;-77
2021/09/03 02:48:22;;;;;;;3.45;2.45;;;;;;;11.56;100.00;101431.13;5202035;28;20051;-79
2021/09/03 02:50:52;;;;;;;3.17;2.33;;;;;;;11.49;100.00;101434.78;5201885;28;20021;-77
2021/09/03 02:53:22;;;;;;;3.80;2.60;;;;;;;11.44;100.00;101428.81;5200700;28;20021;-79
2021/09/03 02:55:53;;;;;;;4.85;2.72;;;;;;;11.36;100.00;101433.38;5200290;28;20028;-79
2021/09/03 02:58:23;;;;;;;3.95;2.40;;;;;;;11.22;100.00;101428.47;5201763;28;20328;-76
2021/09/03 03:00:53;;;;;;;3.40;2.35;;;;;;;11.10;100.00;101430.56;5201448;28;20025;-77
2021/09/03 03:03:23;;;;;;;4.25;2.50;;;;;;;11.23;100.00;101424.09;5201711;28;20116;-77
2021/09/03 03:05:54;;;;;;;2.38;1.70;;;;;;;11.39;100.00;101426.31;5201336;28;20025;-77
2021/09/03 03:08:24;;;;;;;3.25;1.90;;;;;;;11.52;100.00;101417.25;5201879;28;20211;-78
2021/09/03 03:10:54;;;;;;;2.65;1.77;;;;;;;11.28;100.00;101409.16;5201866;28;20037;-78
2021/09/03 03:13:27;;;;;;;5.50;2.20;;;;;;;11.16;100.00;101415.56;5201388;28;20021;-77
2021/09/03 03:15:57;;;;;;;3.53;2.25;;;;;;;11.25;100.00;101419.72;5200962;28;20029;-78
2021/09/03 03:18:27;;;;;;;4.03;2.60;;;;;;;11.39;100.00;101410.59;5200917;28;20608;-77
2021/09/03 03:20:58;;;;;;;4.38;2.40;;;;;;;11.44;100.00;101416.56;5201035;28;20483;-76
2021/09/03 03:23:28;;;;;;;4.53;2.47;;;;;;;11.62;100.00;101413.50;5201126;28;20382;-77
2021/09/03 03:25:58;;;;;;;3.65;2.08;;;;;;;11.62;100.00;101403.03;5201157;28;20017;-78
2021/09/03 03:28:29;;;;;;;3.20;1.80;;;;;;;11.54;100.00;101412.84;5201379;28;20491;-78
2021/09/03 03:30:59;;;;;;;3.38;1.80;;;;;;;11.27;100.00;101408.28;5201444;28;20057;-77
2021/09/03 03:33:29;;;;;;;4.53;1.80;;;;;;;11.14;100.00;101412.09;5200836;28;20021;-77
2021/09/03 03:35:59;;;;;;;3.20;1.90;;;;;;;11.16;100.00;101405.09;5200198;28;20334;-77
2021/09/03 03:38:30;;;;;;;2.57;1.50;;;;;;;11.11;100.00;101404.31;5200793;28;20109;-77
2021/09/03 03:41:00;;;;;;;2.47;1.30;;;;;;;11.15;100.00;101405.13;5201023;28;20280;-80
2021/09/03 03:43:30;;;;;;;5.38;1.75;;;;;;;11.15;100.00;101400.75;5201089;28;20398;-78
2021/09/03 03:46:00;;;;;;;2.80;1.88;;;;;;;11.13;100.00;101401.69;5200411;28;20029;-77
2021/09/03 03:48:31;;;;;;;5.45;2.40;;;;;;;10.99;100.00;101395.09;5200240;28;20368;-77
2021/09/03 03:51:01;;;;;;;3.53;2.13;;;;;;;11.11;100.00;101390.41;5201059;28;20295;-76
2021/09/03 03:53:31;;;;;;;3.45;2.47;;;;;;;11.14;100.00;101388.56;5200814;28;20040;-78
2021/09/03 03:56:02;;;;;;;3.17;2.13;;;;;;;11.18;100.00;101387.59;5199960;28;20029;-78
2021/09/03 03:58:32;;;;;;;3.40;2.33;;;;;;;11.28;100.00;101373.38;5199524;28;20078;-78
2021/09/03 04:01:02;;;;;;;6.50;2.38;;;;;;;11.08;100.00;101388.72;5199715;28;20376;-78
2021/09/03 04:03:33;;;;;;;3.78;2.50;;;;;;;11.06;100.00;101385.28;5199381;28;20021;-78
2021/09/03 04:06:03;;;;;;;3.92;2.85;;;;;;;11.18;100.00;101377.13;5198034;28;20541;-78
2021/09/03 04:08:33;;;;;;;4.55;2.95;;;;;;;11.38;100.00;101377.47;5199764;28;20049;-78
2021/09/03 04:11:04;;;;;;;3.72;2.53;;;;;;;11.47;100.00;101379.84;5199618;28;20112;-78
2021/09/03 04:13:34;;;;;;;4.30;3.00;;;;;;;11.51;100.00;101380.63;5200847;28;20025;-78
2021/09/03 04:16:04;;;;;;;4.05;2.65;;;;;;;11.49;100.00;101375.44;5200398;28;20661;-77
2021/09/03 04:18:35;;;;;;;4.93;2.55;;;;;;;11.58;100.00;101377.84;5200389;28;20025;-78
2021/09/03 04:21:05;;;;;;;4.63;3.03;;;;;;;11.52;100.00;101377.09;5200895;28;20041;-78
2021/09/03 04:23:36;;;;;;;3.97;2.60;;;;;;;11.51;100.00;101376.25;5198824;28;20497;-78
2021/09/03 04:26:06;;;;;;;4.10;2.83;;;;;;;11.58;100.00;101367.38;5200497;28;20475;-78
2021/09/03 04:28:36;;;;;;;4.57;2.90;;;;;;;11.67;100.00;101372.38;5200652;28;20056;-78
2021/09/03 04:31:06;;;;;;;5.03;3.17;;;;;;;11.76;100.00;101376.50;5198666;28;20116;-77
2021/09/03 04:33:37;;;;;;;5.23;3.40;;;;;;;11.57;100.00;101375.25;5219591;22;20049;-78
2021/09/03 04:36:07;;;;;;;5.18;3.50;;;;;;;11.72;100.00;101378.34;5207630;28;21032;-78
2021/09/03 04:38:37;;;;;;;6.30;4.10;;;;;;;11.59;100.00;101371.69;5206596;28;20033;-78
2021/09/03 04:41:08;;;;;;;7.78;4.70;;;;;;;11.47;100.00;101371.16;5207009;28;20033;-79
2021/09/03 04:43:38;;;;;;;7.55;4.82;;;;;;;11.52;100.00;101370.13;5197499;28;20033;-78
2021/09/03 04:46:09;;;;;;;8.57;5.20;;;;;;;11.67;100.00;101367.13;5190816;28;20037;-78
2021/09/03 04:48:39;;;;;;;5.38;4.60;;;;;;;11.77;100.00;101372.97;5201724;28;20128;-78
2021/09/03 04:51:09;;;;;;;7.72;4.57;;;;;;;11.84;100.00;101371.88;5195673;28;20475;-78
2021/09/03 04:53:40;;;;;;;6.10;4.45;;;;;;;11.75;100.00;101370.38;5190672;28;20101;-78
2021/09/03 04:56:10;;;;;;;7.50;4.57;;;;;;;11.87;100.00;101363.94;5202094;28;20042;-78
2021/09/03 04:58:40;;;;;;;5.75;4.65;;;;;;;11.86;100.00;101368.34;5201753;28;20555;-79
2021/09/03 05:01:11;;;;;;;5.50;4.72;;;;;;;11.89;100.00;101373.47;5181642;28;20032;-78
2021/09/03 05:03:41;;;;;;;6.88;4.30;;;;;;;11.85;100.00;101365.75;5198829;28;20057;-78
2021/09/03 05:06:11;;;;;;;7.30;4.82;;;;;;;11.79;100.00;101365.94;5184371;28;20112;-78
2021/09/03 05:08:42;;;;;;;6.22;5.15;;;;;;;11.76;100.00;101364.25;5200439;28;20025;-78
2021/09/03 05:11:12;;;;;;;7.20;5.45;;;;;;;11.88;100.00;101356.06;5192393;28;20250;-78
2021/09/03 05:13:43;;;;;;;7.15;5.45;;;;;;;11.93;100.00;101351.53;5194324;28;20017;-78
2021/09/03 05:16:13;;;;;;;6.70;5.65;;;;;;;11.88;100.00;101352.56;5189884;28;20022;-78
2021/09/03 05:18:44;;;;;;;7.40;5.47;;;;;;;11.87;100.00;101359.56;5180129;28;20072;-81
2021/09/03 05:21:14;;;;;;;7.75;6.18;;;;;;;11.94;100.00;101348.00;5194785;28;20025;-81
2021/09/03 05:23:44;;;;;;;7.95;6.68;;;;;;;12.11;100.00;101356.25;5197577;28;20045;-81
2021/09/03 05:26:14;;;;;;;7.60;6.05;;;;;;;12.09;100.00;101354.59;5193500;28;20037;-81
2021/09/03 05:28:45;;;;;;;7.45;6.07;;;;;;;12.22;100.00;101354.16;5180127;28;20681;-81
2021/09/03 05:31:15;;;;;;;7.07;6.00;;;;;;;12.37;100.00;101350.22;5184450;28;20112;-81
2021/09/03 05:33:45;;;;;;;8.27;5.80;;;;;;;12.37;100.00;101356.34;5179354;28;20030;-81
2021/09/03 05:36:15;;;;;;;7.15;5.95;;;;;;;12.08;100.00;101356.34;5201880;28;20028;-81
2021/09/03 05:38:46;;;;;;;7.18;6.13;;;;;;;11.95;100.00;101357.59;5180230;28;20488;-81
2021/09/03 05:41:16;;;;;;;7.53;6.38;;;;;;;12.33;100.00;101359.09;5197311;28;20109;-81
2021/09/03 05:43:47;;;;;;;8.50;6.63;;;;;;;12.17;100.00;101365.69;5182752;28;20052;-81
2021/09/03 05:46:17;;;;;;;9.30;6.07;;;;;;;12.11;100.00;101356.25;5171485;28;20030;-81
2021/09/03 05:48:47;;;;;;;9.52;6.45;;;;;;;12.38;100.00;101363.28;5197136;28;20029;-81
2021/09/03 05:51:19;;;;;;;13.82;6.85;;;;;;;12.43;100.00;101356.13;5193155;28;20034;-81
2021/09/03 05:53:50;;;;;;;9.50;6.85;;;;;;;12.36;100.00;101349.38;5171543;28;20419;-81
2021/09/03 05:56:20;;;;;;;10.68;7.00;;;;;;;12.49;100.00;101353.31;5182722;28;20169;-81
2021/09/03 05:58:50;;;;;;;7.93;6.50;;;;;;;12.91;100.00;101338.84;5179276;28;20029;-81
2021/09/03 06:01:20;;;;;;;8.57;6.75;;;;;;;12.92;100.00;101343.19;5179829;28;20034;-81
2021/09/03 06:03:51;;;;;;;8.30;6.40;;;;;;;13.03;100.00;101348.97;5200422;28;20021;-81
2021/09/03 06:06:21;;;;;;;8.02;6.57;;;;;;;12.97;100.00;101349.16;5179010;28;20479;-81
2021/09/03 06:08:52;;;;;;;9.75;7.63;;;;;;;12.86;100.00;101343.41;5184286;28;20049;-81
2021/09/03 06:11:25;;;;;;;11.98;7.13;;;;;;;13.03;100.00;101338.50;5183448;28;20284;-81
2021/09/03 06:13:55;;;;;;;9.35;7.18;;;;;;;13.20;100.00;101337.00;5181559;28;20029;-81
2021/09/03 06:16:26;;;;;;;9.52;7.47;;;;;;;13.31;100.00;101340.13;5171938;28;20442;-81
2021/09/03 06:18:56;;;;;;;9.63;7.90;;;;;;;13.71;100.00;101334.31;5197916;28;20021;-81
2021/09/03 06:21:28;;;;;;;13.95;7.72;;;;;;;13.42;100.00;101345.00;5192401;28;20030;-81
2021/09/03 06:23:58;;;;;;;9.60;7.72;;;;;;;13.42;100.00;101337.13;5192685;28;20100;-81
2021/09/03 06:26:29;;;;;;;13.45;8.88;;;;;;;13.50;100.00;101337.69;5196862;28;20121;-81
2021/09/03 06:28:59;;;;;;;11.55;8.93;;;;;;;13.53;100.00;101330.56;5179025;28;20026;-81
2021/09/03 06:31:30;;;;;;;12.73;9.05;;;;;;;13.65;100.00;101331.91;5179411;28;20136;-81
2021/09/03 06:34:00;;;;;;;13.07;8.80;;;;;;;13.67;100.00;101332.69;5178842;28;20072;-78
2021/09/03 06:36:30;;;;;;;11.95;9.50;;;;;;;13.80;100.00;101326.09;5193725;28;20030;-79
2021/09/03 06:39:00;;;;;;;18.40;10.15;;;;;;;13.79;100.00;101322.63;5199182;28;20029;-79
2021/09/03 06:41:31;;;;;;;12.70;9.35;;;;;;;14.08;100.00;101321.53;5176333;28;20045;-79
2021/09/03 06:44:01;;;;;;;13.40;10.05;;;;;;;14.10;100.00;101322.34;5198349;28;20410;-79
2021/09/03 06:46:31;;;;;;;13.63;9.90;;;;;;;14.05;100.00;101324.28;5194219;28;20167;-79
2021/09/03 06:49:02;;;;;;;19.65;10.10;;;;;;;14.37;100.00;101331.81;5178194;28;20029;-79
2021/09/03 06:51:32;;;;;;;16.30;10.77;;;;;;;14.44;100.00;101328.03;5192169;28;20048;-79
2021/09/03 06:54:03;;;;;;;17.17;11.15;;;;;;;14.68;100.00;101332.31;5176482;28;20053;-79
2021/09/03 06:56:33;;;;;;;17.50;11.02;;;;;;;14.65;100.00;101327.19;5178809;28;20025;-78
2021/09/03 06:59:03;;;;;;;16.50;11.57;;;;;;;14.99;100.00;101329.22;5196295;28;20036;-79
2021/09/03 07:01:34;;;;;;;16.67;10.85;;;;;;;15.21;100.00;101330.03;5197899;28;20088;-79
2021/09/03 07:04:04;;;;;;;18.25;11.32;;;;;;;15.49;100.00;101320.06;5200482;28;20021;-79
2021/09/03 07:06:35;;;;;;;17.40;11.00;;;;;;;15.14;100.00;101323.31;5179992;28;20029;-79
2021/09/03 07:09:06;;;;;;;16.35;11.45;;;;;;;15.48;100.00;101323.63;5182397;28;20552;-79
2021/09/03 07:11:36;;;;;;;20.92;11.50;;;;;;;15.37;100.00;101319.75;5179765;28;20365;-79
2021/09/03 07:14:07;;;;;;;18.25;11.63;;;;;;;15.55;100.00;101321.56;5181926;28;20055;-78
2021/09/03 07:16:37;;;;;;;22.48;13.10;;;;;;;15.44;100.00;101324.69;5185448;28;20048;-79
2021/09/03 07:19:07;;;;;;;20.40;12.85;;;;;;;15.92;100.00;101319.88;5175488;28;20101;-79
2021/09/03 07:21:38;;;;;;;19.73;12.65;;;;;;;16.13;100.00;101315.38;5193350;28;20030;-79
2021/09/03 07:24:08;;;;;;;17.92;12.48;;;;;;;15.93;100.00;101320.72;5180542;28;20037;-80
2021/09/03 07:26:39;;;;;;;18.30;12.68;;;;;;;16.17;100.00;101309.91;5175627;28;20037;-80
2021/09/03 07:29:09;;;;;;;16.63;12.55;;;;;;;16.07;100.00;101315.66;5202704;28;20033;-80
2021/09/03 07:31:40;;;;;;;21.25;13.18;;;;;;;16.25;100.00;101313.00;5200311;28;20029;-79
2021/09/03 07:34:10;;;;;;;19.08;12.73;;;;;;;16.16;100.00;101313.47;5177880;28;20058;-79
2021/09/03 07:36:41;;;;;;;17.35;12.23;;;;;;;16.27;100.00;101316.47;5194651;28;20029;-80
2021/09/03 07:39:13;;;;;;;18.38;12.85;;;;;;;16.80;100.00;101318.25;5181561;28;20048;-80
2021/09/03 07:41:44;;;;;;;19.02;13.02;;;;;;;16.77;100.00;101313.13;5179206;28;20021;-80
2021/09/03 07:44:15;;;;;;;16.17;12.05;;;;;;;16.99;100.00;101312.91;5183583;28;20391;-80
2021/09/03 07:46:45;;;;;;;18.27;11.52;;;;;;;18.33;100.00;101309.28;5180496;28;20022;-80
2021/09/03 07:49:15;;;;;;;13.85;10.10;;;;;;;19.66;96.58;101311.97;5199371;28;20024;-80
2021/09/03 07:51:46;;;;;;;15.23;10.57;;;;;;;19.94;89.96;101310.16;5173906;28;20026;-80
2021/09/03 07:54:16;;;;;;;14.95;10.30;;;;;;;20.87;88.12;101302.31;5183938;28;20681;-81
2021/09/03 07:56:46;;;;;;;13.33;9.70;;;;;;;22.23;79.14;101302.50;5182156;28;20128;-80
2021/09/03 07:59:17;;;;;;;13.75;9.27;;;;;;;24.52;74.26;101300.63;5177810;28;20636;-81
2021/09/03 08:01:47;;;;;;;14.67;9.03;;;;;;;24.18;74.64;101306.97;5199024;28;20084;-81
2021/09/03 08:04:17;;;;;;;12.57;9.33;;;;;;;23.07;77.61;101301.53;5195977;28;20022;-80
2021/09/03 08:06:48;;;;;;;12.18;8.10;;;;;;;23.93;76.22;101299.22;5200656;28;20304;-81
2021/09/03 08:09:18;;;;;;;11.13;8.13;;;;;;;24.81;70.21;101294.56;5191696;28;20030;-81
2021/09/03 08:11:49;;;;;;;10.57;7.78;;;;;;;25.20;68.87;101293.09;5198625;28;20286;-81
2021/09/03 08:14:19;;;;;;;11.95;8.27;;;;;;;24.45;73.77;101302.09;5179048;28;20033;-81
2021/09/03 08:16:50;;;;;;;11.68;8.02;;;;;;;24.94;70.59;101294.44;5171247;28;20586;-81
2021/09/03 08:19:20;;;;;;;8.88;7.22;;;;;;;26.49;65.67;101289.69;5193361;28;20021;-81
2021/09/03 08:21:50;;;;;;;8.60;6.75;;;;;;;26.51;65.09;101287.72;5181189;28;20034;-81
2021/09/03 08:24:21;;;;;;;10.00;7.90;;;;;;;28.09;63.43;101263.66;5177207;28;20034;-80
2021/09/03 08:26:51;;;;;;;9.43;6.85;;;;;;;25.48;71.47;101279.06;5189196;28;20033;-82
2021/09/03 08:29:22;;;;;;;9.18;6.75;;;;;;;27.93;63.46;101260.75;5183621;28;20026;-82
2021/09/03 08:31:52;;;;;;;7.90;6.07;;;;;;;29.04;60.25;101266.56;5186515;28;20017;-82
2021/09/03 08:34:23;;;;;;;8.87;7.87;;;;;;;26.70;64.85;101269.81;5201225;28;20056;-82
2021/09/03 08:36:53;;;;;;;9.48;5.65;;;;;;;27.39;63.75;101264.16;5203928;28;20288;-82
2021/09/03 08:39:23;;;;;;;8.27;6.25;;;;;;;26.94;63.75;101270.25;5183848;28;20475;-82
2021/09/03 08:41:53;;;;;;;7.47;4.63;;;;;;;27.98;61.38;101259.28;5200013;28;20021;-82
2021/09/03 08:44:24;;;;;;;6.65;4.75;;;;;;;29.84;58.46;101259.03;5197076;28;20032;-82
2021/09/03 08:46:54;;;;;;;9.73;5.80;;;;;;;29.30;58.00;101262.91;5195449;28;20298;-82
2021/09/03 08:49:25;;;;;;;6.90;5.03;;;;;;;28.44;60.71;101267.28;5200894;28;20052;-82
2021/09/03 08:51:57;;;;;;;7.95;4.78;;;;;;;29.75;56.38;101257.31;5195085;28;20026;-82
2021/09/03 08:54:27;;;;;;;7.25;5.75;;;;;;;26.51;66.80;101267.09;5179040;28;20124;-82
2021/09/03 08:56:58;;;;;;;7.37;4.40;;;;;;;28.89;60.48;101268.13;5203582;28;20121;-82
2021/09/03 08:59:28;;;;;;;6.32;4.28;;;;;;;29.60;56.76;101261.63;5201346;28;20022;-82
2021/09/03 09:02:13;;;;;;;8.20;4.77;;;;;;;29.20;57.34;101269.41;5201798;28;20025;-82
2021/09/03 09:04:45;;;;;;;6.45;4.65;;;;;;;29.47;56.02;101270.13;5203518;28;20025;-82
2021/09/03 09:07:16;;;;;;;7.45;4.82;;;;;;;30.08;55.79;101267.28;5200205;28;20018;-82
2021/09/03 09:09:49;;;;;;;10.73;5.38;;;;;;;29.04;57.42;101278.16;5185832;28;20026;-82
2021/09/03 09:12:19;;;;;;;10.02;5.40;;;;;;;28.97;56.03;101268.16;5177900;28;20125;-82
2021/09/03 09:15:10;;;;;;;7.38;4.75;;;;;;;28.67;57.61;101270.38;5180896;28;20049;-82
2021/09/03 09:17:42;;;;;;;7.43;5.13;;;;;;;28.63;57.57;101264.44;5203638;28;20434;-81
2021/09/03 09:20:16;;;;;;;9.50;5.68;;;;;;;28.20;58.93;101269.66;5201254;28;20021;-82
2021/09/03 09:22:53;;;;;;;10.48;5.65;;;;;;;28.34;57.94;101263.78;5175087;28;20053;-82
2021/09/03 09:25:25;;;;;;;9.15;5.88;;;;;;;26.72;62.64;101261.63;5182050;28;20276;-82
2021/09/03 09:28:21;;;;;;;10.93;6.38;;;;;;;26.56;63.18;101258.63;5201180;28;20021;-82
2021/09/03 09:30:52;;;;;;;12.25;6.80;;;;;;;25.07;67.91;101260.28;5180741;28;20034;-81
2021/09/03 09:33:23;;;;;;;10.75;6.80;;;;;;;24.57;69.34;101258.31;5180850;28;20044;-81
2021/09/03 09:35:56;;;;;;;10.02;6.85;;;;;;;24.06;71.42;101259.03;5196029;28;20061;-81
2021/09/03 09:38:32;;;;;;;10.52;6.57;;;;;;;24.15;70.96;101255.59;5195167;28;20488;-80
2021/09/03 09:41:08;;;;;;;10.60;6.57;;;;;;;23.86;71.37;101255.25;5195494;28;20022;-80
2021/09/03 09:43:43;;;;;;;10.95;6.25;;;;;;;23.28;72.67;101260.78;5196758;28;20449;-80
2021/09/03 09:46:25;;;;;;;11.88;7.15;;;;;;;23.05;74.54;101260.78;5167984;28;20021;-80
2021/09/03 09:49:03;;;;;;;11.48;7.38;;;;;;;22.49;75.58;101247.34;5192837;28;20467;-80
2021/09/03 09:51:48;;;;;;;12.70;7.57;;;;;;;23.09;74.82;101241.78;5172518;28;20025;-80
2021/09/03 09:54:23;;;;;;;11.40;6.15;;;;;;;22.91;76.16;101236.97;5172409;28;20221;-81
2021/09/03 09:57:05;;;;;;;10.55;6.40;;;;;;;22.96;75.49;101234.81;5191245;28;20097;-80
2021/09/03 09:59:35;;;;;;;13.45;6.95;;;;;;;22.64;77.65;101232.88;5194670;28;20026;-81
2021/09/03 10:02:06;;;;;;;10.65;6.53;;;;;;;22.70;77.77;101231.44;5177050;28;20076;-81
2021/09/03 10:04:37;;;;;;;12.65;6.97;;;;;;;22.87;77.75;101230.19;5176189;28;20033;-80
2021/09/03 10:07:07;;;;;;;13.38;7.60;;;;;;;22.64;77.97;101225.75;5178100;28;20425;-80
2021/09/03 10:09:38;;;;;;;12.90;7.13;;;;;;;22.25;78.38;101227.81;5195382;28;20056;-80
2021/09/03 10:12:10;;;;;;;10.90;7.10;;;;;;;22.45;78.57;101214.75;5178271;28;20041;-79
2021/09/03 10:14:42;;;;;;;10.93;6.57;;;;;;;22.53;77.66;101228.34;5172878;28;20046;-81
2021/09/03 10:17:12;;;;;;;11.93;6.63;;;;;;;22.50;77.77;101227.72;5170709;28;20346;-81
2021/09/03 10:19:43;;;;;;;13.63;7.20;;;;;;;22.67;78.80;101222.00;5178887;28;20033;-81
2021/09/03 10:22:16;;;;;;;9.55;6.63;;;;;;;22.47;78.93;101217.31;5194420;28;20057;-80
2021/09/03 10:24:47;;;;;;;10.93;6.78;;;;;;;22.32;78.04;101210.41;5193947;28;20087;-81
2021/09/03 10:27:17;;;;;;;13.68;6.53;;;;;;;22.42;78.11;101211.47;5177440;28;20037;-80
2021/09/03 10:29:48;;;;;;;10.02;5.95;;;;;;;22.53;76.68;101214.16;5181273;28;20033;-80
2021/09/03 10:32:24;;;;;;;9.98;5.90;;;;;;;22.08;78.25;101214.88;5192846;22;20030;-78
2021/09/03 10:34:57;;;;;;;10.45;5.72;;;;;;;22.25;76.80;101211.84;5183123;28;20041;-78
2021/09/03 10:37:32;;;;;;;10.73;5.85;;;;;;;22.04;78.48;101205.38;5184534;28;20105;-80
2021/09/03 10:40:06;;;;;;;;;;;;;;;22.09;79.54;101203.25;5184372;28;20590;-79
2021/09/03 10:42:37;;;;;;;9.55;6.40;;;;;;;22.22;78.21;101204.06;5184471;28;20100;-79
2021/09/03 10:45:10;;;;;;;10.40;6.70;;;;;;;22.34;79.20;101200.47;5183078;28;20030;-80
2021/09/03 10:47:46;;;;;;;11.57;7.15;;;;;;;22.22;78.72;101191.59;5183528;28;20022;-80
2021/09/03 10:50:36;;;;;;;10.07;6.18;;;;;;;21.95;78.77;101190.09;5183535;28;20356;-78
2021/09/03 10:53:12;;;;;;;10.18;6.07;;;;;;;22.04;79.40;101200.94;5180285;28;20053;-81
2021/09/03 10:55:58;;;;;;;12.00;6.90;;;;;;;21.89;78.55;101186.06;5181602;28;20088;-79
2021/09/03 10:58:50;;;;;;;11.48;6.75;;;;;;;22.15;78.55;101189.50;5178740;28;20420;-78
2021/09/03 11:01:20;;;;;;;10.25;6.13;;;;;;;22.08;80.11;101181.09;5181524;28;20033;-78
2021/09/03 11:03:52;;;;;;;9.68;6.28;;;;;;;22.24;79.88;101179.00;5180691;28;20026;-80
2021/09/03 11:06:25;;;;;;;10.95;6.53;;;;;;;22.26;78.37;101177.06;5180516;28;20029;-79
2021/09/03 11:09:02;;;;;;;10.63;6.53;;;;;;;22.27;79.63;101177.94;5180923;28;20025;-78
2021/09/03 11:11:38;;;;;;;12.43;6.90;;;;;;;22.34;78.33;101171.19;5178733;28;20053;-79
2021/09/03 11:14:14;;;;;;;9.18;5.88;;;;;;;22.41;78.74;101167.97;5179172;28;20888;-78
2021/09/03 11:16:48;;;;;;;11.75;6.18;;;;;;;22.27;79.08;101169.94;5179516;28;20021;-79
2021/09/03 11:19:19;;;;;;;10.35;6.40;;;;;;;22.48;78.91;101168.38;5180264;28;20063;-79
2021/09/03 11:21:51;;;;;;;10.68;6.50;;;;;;;22.47;77.95;101169.34;5180395;28;20113;-79
2021/09/03 11:24:24;;;;;;;11.30;6.53;;;;;;;22.49;79.32;101164.75;5180420;28;20022;-79
2021/09/03 11:26:56;;;;;;;11.10;6.90;;;;;;;22.35;79.61;101170.22;5179935;28;20412;-78
2021/09/03 11:29:26;;;;;;;11.45;7.05;;;;;;;22.35;78.02;101162.22;5175757;28;20033;-79
2021/09/03 11:31:58;;;;;;;11.83;6.80;;;;;;;22.34;79.86;101152.53;5180988;28;20087;-79
2021/09/03 11:34:42;;;;;;;10.73;6.82;;;;;;;22.13;79.11;101160.31;5181448;28;20276;-78